sensor_id;sensor_type;location;lat;lon;timestamp;temperature;humidity
9437;DHT22;4757;59.334;18.034;2023-07-31T00:00:23;16.50;99.90
9437;DHT22;4757;59.334;18.034;2023-07-31T00:02:52;16.30;99.90
9437;DHT22;4757;59.334;18.034;2023-07-31T00:05:21;16.20;99.90
9437;DHT22;4757;59.334;18.034;2023-07-31T00:07:48;16.20;99.90
9437;DHT22;4757;59.334;18.034;2023-07-31T00:10:15;16.30;99.90
9437;DHT22;4757;59.334;18.034;2023-07-31T00:12:44;16.30;99.90
9437;DHT22;4757;59.334;18.034;2023-07-31T00:15:13;16.30;99.90
9437;DHT22;4757;59.334;18.034;2023-07-31T00:17:40;16.40;99.90
9437;DHT22;4757;59.334;18.034;2023-07-31T00:20:08;16.00;99.90
9437;DHT22;4757;59.334;18.034;2023-07-31T00:22:36;16.00;99.90
9437;DHT22;4757;59.334;18.034;2023-07-31T00:25:03;16.00;99.90
9437;DHT22;4757;59.334;18.034;2023-07-31T00:27:31;16.00;99.90
9437;DHT22;4757;59.334;18.034;2023-07-31T00:29:58;16.00;99.90
9437;DHT22;4757;59.334;18.034;2023-07-31T00:32:25;16.00;99.90
9437;DHT22;4757;59.334;18.034;2023-07-31T00:34:52;15.90;99.90
9437;DHT22;4757;59.334;18.034;2023-07-31T00:37:19;15.90;99.90
9437;DHT22;4757;59.334;18.034;2023-07-31T00:39:46;15.90;99.90
9437;DHT22;4757;59.334;18.034;2023-07-31T00:42:13;15.90;99.90
9437;DHT22;4757;59.334;18.034;2023-07-31T00:44:40;15.90;99.90
9437;DHT22;4757;59.334;18.034;2023-07-31T00:47:07;15.90;99.90
9437;DHT22;4757;59.334;18.034;2023-07-31T00:49:35;16.00;99.90
9437;DHT22;4757;59.334;18.034;2023-07-31T00:52:02;15.90;99.90
9437;DHT22;4757;59.334;18.034;2023-07-31T00:54:29;15.90;99.90
9437;DHT22;4757;59.334;18.034;2023-07-31T00:56:57;15.90;99.90
9437;DHT22;4757;59.334;18.034;2023-07-31T00:59:24;16.00;99.90
9437;DHT22;4757;59.334;18.034;2023-07-31T01:01:55;16.20;99.90
9437;DHT22;4757;59.334;18.034;2023-07-31T01:04:22;16.20;99.90
9437;DHT22;4757;59.334;18.034;2023-07-31T01:07:11;16.20;99.90
9437;DHT22;4757;59.334;18.034;2023-07-31T01:10:04;16.20;99.90
9437;DHT22;4757;59.334;18.034;2023-07-31T01:12:34;16.20;99.90
9437;DHT22;4757;59.334;18.034;2023-07-31T01:15:08;16.20;99.90
9437;DHT22;4757;59.334;18.034;2023-07-31T01:17:38;16.10;99.90
9437;DHT22;4757;59.334;18.034;2023-07-31T01:29:06;15.90;99.90
9437;DHT22;4757;59.334;18.034;2023-07-31T01:31:35;15.80;99.90
9437;DHT22;4757;59.334;18.034;2023-07-31T01:34:03;15.80;99.90
9437;DHT22;4757;59.334;18.034;2023-07-31T01:36:31;15.70;99.90
9437;DHT22;4757;59.334;18.034;2023-07-31T01:39:02;15.80;99.90
9437;DHT22;4757;59.334;18.034;2023-07-31T01:41:30;15.80;99.90
9437;DHT22;4757;59.334;18.034;2023-07-31T01:44:00;16.00;99.90
9437;DHT22;4757;59.334;18.034;2023-07-31T01:46:27;16.00;99.90
9437;DHT22;4757;59.334;18.034;2023-07-31T01:48:54;16.10;99.90
9437;DHT22;4757;59.334;18.034;2023-07-31T01:51:21;16.10;99.90
9437;DHT22;4757;59.334;18.034;2023-07-31T01:53:49;16.10;99.90
9437;DHT22;4757;59.334;18.034;2023-07-31T01:56:16;16.20;99.90
9437;DHT22;4757;59.334;18.034;2023-07-31T01:58:43;16.10;99.90
9437;DHT22;4757;59.334;18.034;2023-07-31T02:01:10;16.10;99.90
9437;DHT22;4757;59.334;18.034;2023-07-31T02:03:37;16.00;99.90
9437;DHT22;4757;59.334;18.034;2023-07-31T02:06:04;16.10;99.90
9437;DHT22;4757;59.334;18.034;2023-07-31T02:08:35;16.10;99.90
9437;DHT22;4757;59.334;18.034;2023-07-31T02:11:02;16.20;99.90
9437;DHT22;4757;59.334;18.034;2023-07-31T02:13:29;16.20;99.90
9437;DHT22;4757;59.334;18.034;2023-07-31T02:15:56;16.20;99.90
9437;DHT22;4757;59.334;18.034;2023-07-31T02:18:24;16.10;99.90
9437;DHT22;4757;59.334;18.034;2023-07-31T02:20:51;16.20;99.90
9437;DHT22;4757;59.334;18.034;2023-07-31T02:23:19;16.10;99.90
9437;DHT22;4757;59.334;18.034;2023-07-31T02:25:46;16.10;99.90
9437;DHT22;4757;59.334;18.034;2023-07-31T02:28:14;16.00;99.90
9437;DHT22;4757;59.334;18.034;2023-07-31T02:30:44;16.00;99.90
9437;DHT22;4757;59.334;18.034;2023-07-31T02:33:13;16.10;99.90
9437;DHT22;4757;59.334;18.034;2023-07-31T02:35:40;16.20;99.90
9437;DHT22;4757;59.334;18.034;2023-07-31T02:38:07;16.80;99.90
9437;DHT22;4757;59.334;18.034;2023-07-31T02:40:34;16.20;99.90
9437;DHT22;4757;59.334;18.034;2023-07-31T02:43:01;16.20;99.90
9437;DHT22;4757;59.334;18.034;2023-07-31T02:45:29;16.30;99.90
9437;DHT22;4757;59.334;18.034;2023-07-31T02:47:56;16.20;99.90
9437;DHT22;4757;59.334;18.034;2023-07-31T02:50:23;16.00;99.90
9437;DHT22;4757;59.334;18.034;2023-07-31T02:52:50;15.90;99.90
9437;DHT22;4757;59.334;18.034;2023-07-31T02:55:17;15.90;99.90
9437;DHT22;4757;59.334;18.034;2023-07-31T02:57:44;16.10;99.90
9437;DHT22;4757;59.334;18.034;2023-07-31T03:00:11;16.00;99.90
9437;DHT22;4757;59.334;18.034;2023-07-31T03:02:39;16.00;99.90
9437;DHT22;4757;59.334;18.034;2023-07-31T03:05:06;16.20;99.90
9437;DHT22;4757;59.334;18.034;2023-07-31T03:07:34;16.30;99.90
9437;DHT22;4757;59.334;18.034;2023-07-31T03:10:01;16.10;99.90
9437;DHT22;4757;59.334;18.034;2023-07-31T03:12:28;16.00;99.90
9437;DHT22;4757;59.334;18.034;2023-07-31T03:14:55;16.20;99.90
9437;DHT22;4757;59.334;18.034;2023-07-31T03:17:22;16.40;99.90
9437;DHT22;4757;59.334;18.034;2023-07-31T03:19:49;16.40;99.90
9437;DHT22;4757;59.334;18.034;2023-07-31T03:22:18;16.40;99.90
9437;DHT22;4757;59.334;18.034;2023-07-31T03:24:45;16.40;99.90
9437;DHT22;4757;59.334;18.034;2023-07-31T03:27:12;16.30;99.90
9437;DHT22;4757;59.334;18.034;2023-07-31T03:29:39;16.30;99.90
9437;DHT22;4757;59.334;18.034;2023-07-31T03:32:06;16.20;99.90
9437;DHT22;4757;59.334;18.034;2023-07-31T03:34:33;16.10;99.90
9437;DHT22;4757;59.334;18.034;2023-07-31T03:37:01;16.00;99.90
9437;DHT22;4757;59.334;18.034;2023-07-31T03:39:28;16.00;99.90
9437;DHT22;4757;59.334;18.034;2023-07-31T03:41:55;16.30;99.90
9437;DHT22;4757;59.334;18.034;2023-07-31T03:44:22;16.30;99.90
9437;DHT22;4757;59.334;18.034;2023-07-31T03:46:49;16.30;99.90
9437;DHT22;4757;59.334;18.034;2023-07-31T03:49:16;16.30;99.90
9437;DHT22;4757;59.334;18.034;2023-07-31T03:51:43;16.20;99.90
9437;DHT22;4757;59.334;18.034;2023-07-31T03:54:12;16.30;99.90
9437;DHT22;4757;59.334;18.034;2023-07-31T03:56:40;16.30;99.90
9437;DHT22;4757;59.334;18.034;2023-07-31T03:59:08;16.50;99.90
9437;DHT22;4757;59.334;18.034;2023-07-31T04:01:35;16.60;99.90
9437;DHT22;4757;59.334;18.034;2023-07-31T04:04:03;16.70;99.90
9437;DHT22;4757;59.334;18.034;2023-07-31T04:06:30;16.70;99.90
9437;DHT22;4757;59.334;18.034;2023-07-31T04:08:57;16.60;99.90
9437;DHT22;4757;59.334;18.034;2023-07-31T04:11:24;16.70;99.90
9437;DHT22;4757;59.334;18.034;2023-07-31T04:13:52;16.60;99.90
9437;DHT22;4757;59.334;18.034;2023-07-31T04:16:19;16.50;99.90
9437;DHT22;4757;59.334;18.034;2023-07-31T04:18:46;16.50;99.90
9437;DHT22;4757;59.334;18.034;2023-07-31T04:21:13;16.40;99.90
9437;DHT22;4757;59.334;18.034;2023-07-31T04:23:41;16.50;99.90
9437;DHT22;4757;59.334;18.034;2023-07-31T04:26:08;16.60;99.90
9437;DHT22;4757;59.334;18.034;2023-07-31T04:28:35;16.60;99.90
9437;DHT22;4757;59.334;18.034;2023-07-31T04:31:02;16.60;99.90
9437;DHT22;4757;59.334;18.034;2023-07-31T04:33:29;16.70;99.90
9437;DHT22;4757;59.334;18.034;2023-07-31T04:35:57;16.80;99.90
9437;DHT22;4757;59.334;18.034;2023-07-31T04:38:24;16.80;99.90
9437;DHT22;4757;59.334;18.034;2023-07-31T04:40:51;16.90;99.90
9437;DHT22;4757;59.334;18.034;2023-07-31T04:43:20;16.80;99.90
9437;DHT22;4757;59.334;18.034;2023-07-31T04:45:48;16.90;99.90
9437;DHT22;4757;59.334;18.034;2023-07-31T04:48:15;16.90;99.90
9437;DHT22;4757;59.334;18.034;2023-07-31T04:50:42;16.90;99.90
9437;DHT22;4757;59.334;18.034;2023-07-31T04:53:09;16.90;99.90
9437;DHT22;4757;59.334;18.034;2023-07-31T04:55:36;16.90;99.90
9437;DHT22;4757;59.334;18.034;2023-07-31T04:58:04;17.00;99.90
9437;DHT22;4757;59.334;18.034;2023-07-31T05:00:34;17.10;99.90
9437;DHT22;4757;59.334;18.034;2023-07-31T05:03:02;17.00;99.90
9437;DHT22;4757;59.334;18.034;2023-07-31T05:05:29;17.10;99.90
9437;DHT22;4757;59.334;18.034;2023-07-31T05:07:56;17.10;99.90
9437;DHT22;4757;59.334;18.034;2023-07-31T05:10:24;17.00;99.90
9437;DHT22;4757;59.334;18.034;2023-07-31T05:12:54;17.00;99.90
9437;DHT22;4757;59.334;18.034;2023-07-31T05:15:21;17.00;99.90
9437;DHT22;4757;59.334;18.034;2023-07-31T05:17:48;17.00;99.90
9437;DHT22;4757;59.334;18.034;2023-07-31T05:20:15;17.00;99.90
9437;DHT22;4757;59.334;18.034;2023-07-31T05:22:42;17.10;99.90
9437;DHT22;4757;59.334;18.034;2023-07-31T05:25:09;17.10;99.90
9437;DHT22;4757;59.334;18.034;2023-07-31T05:27:36;17.10;99.90
9437;DHT22;4757;59.334;18.034;2023-07-31T05:30:04;17.10;99.90
9437;DHT22;4757;59.334;18.034;2023-07-31T05:32:32;17.10;99.90
9437;DHT22;4757;59.334;18.034;2023-07-31T05:34:59;17.30;99.90
9437;DHT22;4757;59.334;18.034;2023-07-31T05:37:26;17.30;99.90
9437;DHT22;4757;59.334;18.034;2023-07-31T05:39:53;17.30;99.90
9437;DHT22;4757;59.334;18.034;2023-07-31T05:42:21;17.20;99.90
9437;DHT22;4757;59.334;18.034;2023-07-31T05:44:48;17.10;99.90
9437;DHT22;4757;59.334;18.034;2023-07-31T05:47:15;17.10;99.90
9437;DHT22;4757;59.334;18.034;2023-07-31T05:49:42;16.50;99.90
9437;DHT22;4757;59.334;18.034;2023-07-31T05:52:09;17.10;99.90
9437;DHT22;4757;59.334;18.034;2023-07-31T05:54:36;17.10;99.90
9437;DHT22;4757;59.334;18.034;2023-07-31T05:57:04;17.10;99.90
9437;DHT22;4757;59.334;18.034;2023-07-31T05:59:31;17.10;99.90
9437;DHT22;4757;59.334;18.034;2023-07-31T06:01:59;17.20;99.90
9437;DHT22;4757;59.334;18.034;2023-07-31T06:04:27;17.20;99.90
9437;DHT22;4757;59.334;18.034;2023-07-31T06:06:55;17.20;99.90
9437;DHT22;4757;59.334;18.034;2023-07-31T06:09:22;17.10;99.90
9437;DHT22;4757;59.334;18.034;2023-07-31T06:11:50;17.10;99.90
9437;DHT22;4757;59.334;18.034;2023-07-31T06:14:17;17.00;99.90
9437;DHT22;4757;59.334;18.034;2023-07-31T06:16:44;16.80;99.90
9437;DHT22;4757;59.334;18.034;2023-07-31T06:19:11;16.90;99.90
9437;DHT22;4757;59.334;18.034;2023-07-31T06:21:39;17.00;99.90
9437;DHT22;4757;59.334;18.034;2023-07-31T06:24:08;16.90;99.90
9437;DHT22;4757;59.334;18.034;2023-07-31T06:26:39;16.80;99.90
9437;DHT22;4757;59.334;18.034;2023-07-31T06:29:07;16.80;99.90
9437;DHT22;4757;59.334;18.034;2023-07-31T06:31:34;16.80;99.90
9437;DHT22;4757;59.334;18.034;2023-07-31T06:34:01;16.80;99.90
9437;DHT22;4757;59.334;18.034;2023-07-31T06:36:28;16.50;99.90
9437;DHT22;4757;59.334;18.034;2023-07-31T06:38:55;16.90;99.90
9437;DHT22;4757;59.334;18.034;2023-07-31T06:41:23;16.80;99.90
9437;DHT22;4757;59.334;18.034;2023-07-31T06:43:50;17.00;99.90
9437;DHT22;4757;59.334;18.034;2023-07-31T06:46:17;16.80;99.90
9437;DHT22;4757;59.334;18.034;2023-07-31T06:48:44;16.80;99.90
9437;DHT22;4757;59.334;18.034;2023-07-31T06:51:11;16.80;99.90
9437;DHT22;4757;59.334;18.034;2023-07-31T06:53:39;16.80;99.90
9437;DHT22;4757;59.334;18.034;2023-07-31T06:56:06;16.80;99.90
9437;DHT22;4757;59.334;18.034;2023-07-31T06:58:33;16.80;99.90
9437;DHT22;4757;59.334;18.034;2023-07-31T07:01:00;16.70;99.90
9437;DHT22;4757;59.334;18.034;2023-07-31T07:03:27;16.60;99.90
9437;DHT22;4757;59.334;18.034;2023-07-31T07:05:55;16.60;99.90
9437;DHT22;4757;59.334;18.034;2023-07-31T07:08:22;16.50;99.90
9437;DHT22;4757;59.334;18.034;2023-07-31T07:10:52;16.30;99.90
9437;DHT22;4757;59.334;18.034;2023-07-31T07:13:21;16.30;99.90
9437;DHT22;4757;59.334;18.034;2023-07-31T07:15:49;16.20;99.90
9437;DHT22;4757;59.334;18.034;2023-07-31T07:18:18;16.10;99.90
9437;DHT22;4757;59.334;18.034;2023-07-31T07:20:53;16.10;99.90
9437;DHT22;4757;59.334;18.034;2023-07-31T07:23:21;16.00;99.90
9437;DHT22;4757;59.334;18.034;2023-07-31T07:25:48;15.90;99.90
9437;DHT22;4757;59.334;18.034;2023-07-31T07:28:15;15.90;99.90
9437;DHT22;4757;59.334;18.034;2023-07-31T07:30:43;15.90;99.90
9437;DHT22;4757;59.334;18.034;2023-07-31T07:33:10;16.00;99.90
9437;DHT22;4757;59.334;18.034;2023-07-31T07:35:38;16.00;99.90
9437;DHT22;4757;59.334;18.034;2023-07-31T07:38:05;16.00;99.90
9437;DHT22;4757;59.334;18.034;2023-07-31T07:40:32;15.90;99.90
9437;DHT22;4757;59.334;18.034;2023-07-31T07:42:59;16.00;99.90
9437;DHT22;4757;59.334;18.034;2023-07-31T07:45:27;15.90;99.90
9437;DHT22;4757;59.334;18.034;2023-07-31T07:47:54;16.00;99.90
9437;DHT22;4757;59.334;18.034;2023-07-31T07:50:23;15.90;99.90
9437;DHT22;4757;59.334;18.034;2023-07-31T07:52:50;15.90;99.90
9437;DHT22;4757;59.334;18.034;2023-07-31T07:55:17;15.90;99.90
9437;DHT22;4757;59.334;18.034;2023-07-31T07:57:44;15.70;99.90
9437;DHT22;4757;59.334;18.034;2023-07-31T08:00:12;15.60;99.90
9437;DHT22;4757;59.334;18.034;2023-07-31T08:02:40;15.60;99.90
9437;DHT22;4757;59.334;18.034;2023-07-31T08:05:07;15.40;99.90
9437;DHT22;4757;59.334;18.034;2023-07-31T08:07:35;15.40;99.90
9437;DHT22;4757;59.334;18.034;2023-07-31T08:10:02;15.40;99.90
9437;DHT22;4757;59.334;18.034;2023-07-31T08:12:30;15.40;99.90
9437;DHT22;4757;59.334;18.034;2023-07-31T08:14:57;15.40;99.90
9437;DHT22;4757;59.334;18.034;2023-07-31T08:17:26;15.40;99.90
9437;DHT22;4757;59.334;18.034;2023-07-31T08:19:53;15.30;99.90
9437;DHT22;4757;59.334;18.034;2023-07-31T08:22:22;15.30;99.90
9437;DHT22;4757;59.334;18.034;2023-07-31T08:24:49;15.30;99.90
9437;DHT22;4757;59.334;18.034;2023-07-31T08:27:16;15.30;99.90
9437;DHT22;4757;59.334;18.034;2023-07-31T08:29:43;15.20;99.90
9437;DHT22;4757;59.334;18.034;2023-07-31T08:32:10;15.20;99.90
9437;DHT22;4757;59.334;18.034;2023-07-31T08:34:37;15.10;99.90
9437;DHT22;4757;59.334;18.034;2023-07-31T08:37:04;14.90;99.90
9437;DHT22;4757;59.334;18.034;2023-07-31T08:39:31;14.80;99.90
9437;DHT22;4757;59.334;18.034;2023-07-31T08:41:59;14.80;99.90
9437;DHT22;4757;59.334;18.034;2023-07-31T08:44:27;14.80;99.90
9437;DHT22;4757;59.334;18.034;2023-07-31T08:46:54;14.90;99.90
9437;DHT22;4757;59.334;18.034;2023-07-31T08:49:22;15.00;99.90
9437;DHT22;4757;59.334;18.034;2023-07-31T08:51:50;15.00;99.90
9437;DHT22;4757;59.334;18.034;2023-07-31T08:54:22;15.00;99.90
9437;DHT22;4757;59.334;18.034;2023-07-31T08:56:50;15.10;99.90
9437;DHT22;4757;59.334;18.034;2023-07-31T08:59:18;15.20;99.90
9437;DHT22;4757;59.334;18.034;2023-07-31T09:01:49;15.20;99.90
9437;DHT22;4757;59.334;18.034;2023-07-31T09:04:19;15.20;99.90
9437;DHT22;4757;59.334;18.034;2023-07-31T09:06:48;15.40;99.90
9437;DHT22;4757;59.334;18.034;2023-07-31T09:09:15;15.40;99.90
9437;DHT22;4757;59.334;18.034;2023-07-31T09:11:42;15.40;99.90
9437;DHT22;4757;59.334;18.034;2023-07-31T09:14:10;15.40;99.90
9437;DHT22;4757;59.334;18.034;2023-07-31T09:16:52;15.30;99.90
9437;DHT22;4757;59.334;18.034;2023-07-31T09:19:37;15.40;99.90
9437;DHT22;4757;59.334;18.034;2023-07-31T09:22:05;15.40;99.90
9437;DHT22;4757;59.334;18.034;2023-07-31T09:24:34;15.50;99.90
9437;DHT22;4757;59.334;18.034;2023-07-31T09:27:01;15.60;99.90
9437;DHT22;4757;59.334;18.034;2023-07-31T09:29:29;16.10;99.90
9437;DHT22;4757;59.334;18.034;2023-07-31T09:31:56;16.50;99.90
9437;DHT22;4757;59.334;18.034;2023-07-31T09:34:37;17.50;99.90
9437;DHT22;4757;59.334;18.034;2023-07-31T09:37:08;17.80;99.90
9437;DHT22;4757;59.334;18.034;2023-07-31T09:39:48;17.60;99.90
9437;DHT22;4757;59.334;18.034;2023-07-31T09:42:24;17.30;99.90
9437;DHT22;4757;59.334;18.034;2023-07-31T09:44:52;17.00;99.90
9437;DHT22;4757;59.334;18.034;2023-07-31T09:47:23;17.10;99.90
9437;DHT22;4757;59.334;18.034;2023-07-31T09:49:52;16.90;99.90
9437;DHT22;4757;59.334;18.034;2023-07-31T09:52:19;17.00;99.90
9437;DHT22;4757;59.334;18.034;2023-07-31T09:54:46;17.10;99.90
9437;DHT22;4757;59.334;18.034;2023-07-31T09:57:14;17.10;99.90
9437;DHT22;4757;59.334;18.034;2023-07-31T09:59:47;17.00;99.90
9437;DHT22;4757;59.334;18.034;2023-07-31T10:02:20;17.10;99.90
9437;DHT22;4757;59.334;18.034;2023-07-31T10:04:50;17.30;99.90
9437;DHT22;4757;59.334;18.034;2023-07-31T10:07:18;17.20;99.90
9437;DHT22;4757;59.334;18.034;2023-07-31T10:09:47;17.40;99.90
9437;DHT22;4757;59.334;18.034;2023-07-31T10:12:19;17.60;99.90
9437;DHT22;4757;59.334;18.034;2023-07-31T10:14:48;17.50;99.90
9437;DHT22;4757;59.334;18.034;2023-07-31T10:17:15;17.50;99.90
9437;DHT22;4757;59.334;18.034;2023-07-31T10:19:44;17.40;99.90
9437;DHT22;4757;59.334;18.034;2023-07-31T10:22:11;17.40;99.90
9437;DHT22;4757;59.334;18.034;2023-07-31T10:24:40;17.40;99.90
9437;DHT22;4757;59.334;18.034;2023-07-31T10:27:10;17.20;99.90
9437;DHT22;4757;59.334;18.034;2023-07-31T10:29:38;17.20;99.90
9437;DHT22;4757;59.334;18.034;2023-07-31T10:32:07;17.10;99.90
9437;DHT22;4757;59.334;18.034;2023-07-31T10:34:39;17.50;99.90
9437;DHT22;4757;59.334;18.034;2023-07-31T10:37:24;17.70;99.90
9437;DHT22;4757;59.334;18.034;2023-07-31T10:40:04;18.00;99.90
9437;DHT22;4757;59.334;18.034;2023-07-31T10:42:34;17.80;99.90
9437;DHT22;4757;59.334;18.034;2023-07-31T10:45:04;17.90;99.90
9437;DHT22;4757;59.334;18.034;2023-07-31T10:47:45;18.00;99.90
9437;DHT22;4757;59.334;18.034;2023-07-31T10:50:22;17.80;99.90
9437;DHT22;4757;59.334;18.034;2023-07-31T10:52:53;17.80;99.90
9437;DHT22;4757;59.334;18.034;2023-07-31T10:58:10;17.30;99.90
9437;DHT22;4757;59.334;18.034;2023-07-31T11:00:39;17.50;99.90
9437;DHT22;4757;59.334;18.034;2023-07-31T11:03:12;17.60;99.90
9437;DHT22;4757;59.334;18.034;2023-07-31T11:05:51;17.90;99.90
9437;DHT22;4757;59.334;18.034;2023-07-31T11:08:27;17.50;99.90
9437;DHT22;4757;59.334;18.034;2023-07-31T11:13:41;17.60;99.90
9437;DHT22;4757;59.334;18.034;2023-07-31T11:16:10;17.70;99.90
9437;DHT22;4757;59.334;18.034;2023-07-31T11:18:42;17.50;99.90
9437;DHT22;4757;59.334;18.034;2023-07-31T11:21:18;17.80;99.90
9437;DHT22;4757;59.334;18.034;2023-07-31T11:23:51;17.80;99.90
9437;DHT22;4757;59.334;18.034;2023-07-31T11:26:19;17.50;99.90
9437;DHT22;4757;59.334;18.034;2023-07-31T11:28:48;17.70;99.90
9437;DHT22;4757;59.334;18.034;2023-07-31T11:31:16;17.70;99.90
9437;DHT22;4757;59.334;18.034;2023-07-31T11:33:44;17.40;99.90
9437;DHT22;4757;59.334;18.034;2023-07-31T11:36:18;17.40;99.90
9437;DHT22;4757;59.334;18.034;2023-07-31T11:38:45;17.40;99.90
9437;DHT22;4757;59.334;18.034;2023-07-31T11:41:16;17.40;99.90
9437;DHT22;4757;59.334;18.034;2023-07-31T11:43:46;17.20;99.90
9437;DHT22;4757;59.334;18.034;2023-07-31T11:46:14;17.10;99.90
9437;DHT22;4757;59.334;18.034;2023-07-31T11:48:42;17.10;99.90
9437;DHT22;4757;59.334;18.034;2023-07-31T11:51:11;17.30;99.90
9437;DHT22;4757;59.334;18.034;2023-07-31T11:53:56;17.40;99.90
9437;DHT22;4757;59.334;18.034;2023-07-31T11:56:24;17.30;99.90
9437;DHT22;4757;59.334;18.034;2023-07-31T11:58:59;17.10;99.90
9437;DHT22;4757;59.334;18.034;2023-07-31T12:01:27;17.20;99.90
9437;DHT22;4757;59.334;18.034;2023-07-31T12:03:56;17.20;99.90
9437;DHT22;4757;59.334;18.034;2023-07-31T12:06:35;17.00;99.90
9437;DHT22;4757;59.334;18.034;2023-07-31T12:09:04;16.90;99.90
9437;DHT22;4757;59.334;18.034;2023-07-31T12:11:46;16.70;99.90
9437;DHT22;4757;59.334;18.034;2023-07-31T12:14:27;16.40;99.90
9437;DHT22;4757;59.334;18.034;2023-07-31T12:17:00;16.00;99.90
9437;DHT22;4757;59.334;18.034;2023-07-31T12:19:28;15.70;99.90
9437;DHT22;4757;59.334;18.034;2023-07-31T12:21:59;15.50;99.90
9437;DHT22;4757;59.334;18.034;2023-07-31T12:24:27;15.20;99.90
9437;DHT22;4757;59.334;18.034;2023-07-31T12:26:54;15.00;99.90
9437;DHT22;4757;59.334;18.034;2023-07-31T12:29:22;15.00;99.90
9437;DHT22;4757;59.334;18.034;2023-07-31T12:31:49;15.00;99.90
9437;DHT22;4757;59.334;18.034;2023-07-31T12:34:18;15.00;99.90
9437;DHT22;4757;59.334;18.034;2023-07-31T12:36:48;15.00;99.90
9437;DHT22;4757;59.334;18.034;2023-07-31T12:39:18;15.10;99.90
9437;DHT22;4757;59.334;18.034;2023-07-31T12:41:45;14.90;99.90
9437;DHT22;4757;59.334;18.034;2023-07-31T12:44:12;14.90;99.90
9437;DHT22;4757;59.334;18.034;2023-07-31T12:46:39;15.00;99.90
9437;DHT22;4757;59.334;18.034;2023-07-31T12:49:06;15.10;99.90
9437;DHT22;4757;59.334;18.034;2023-07-31T12:51:33;15.20;99.90
9437;DHT22;4757;59.334;18.034;2023-07-31T12:54:01;15.30;99.90
9437;DHT22;4757;59.334;18.034;2023-07-31T12:56:31;15.40;99.90
9437;DHT22;4757;59.334;18.034;2023-07-31T12:58:58;15.30;99.90
9437;DHT22;4757;59.334;18.034;2023-07-31T13:01:26;15.20;99.90
9437;DHT22;4757;59.334;18.034;2023-07-31T13:03:53;15.20;99.90
9437;DHT22;4757;59.334;18.034;2023-07-31T13:06:21;15.40;99.90
9437;DHT22;4757;59.334;18.034;2023-07-31T13:08:48;15.30;99.90
9437;DHT22;4757;59.334;18.034;2023-07-31T13:11:15;15.50;99.90
9437;DHT22;4757;59.334;18.034;2023-07-31T13:13:42;15.60;99.90
9437;DHT22;4757;59.334;18.034;2023-07-31T13:16:10;15.70;99.90
9437;DHT22;4757;59.334;18.034;2023-07-31T13:18:37;15.80;99.90
9437;DHT22;4757;59.334;18.034;2023-07-31T13:21:04;15.70;99.90
9437;DHT22;4757;59.334;18.034;2023-07-31T13:23:32;15.70;99.90
9437;DHT22;4757;59.334;18.034;2023-07-31T13:25:59;15.70;99.90
9437;DHT22;4757;59.334;18.034;2023-07-31T13:28:26;15.80;99.90
9437;DHT22;4757;59.334;18.034;2023-07-31T13:30:53;15.70;99.90
9437;DHT22;4757;59.334;18.034;2023-07-31T13:33:20;15.90;99.90
9437;DHT22;4757;59.334;18.034;2023-07-31T13:36:03;15.30;99.90
9437;DHT22;4757;59.334;18.034;2023-07-31T13:38:30;15.80;99.90
9437;DHT22;4757;59.334;18.034;2023-07-31T13:40:57;15.70;99.90
9437;DHT22;4757;59.334;18.034;2023-07-31T13:43:25;15.60;99.90
9437;DHT22;4757;59.334;18.034;2023-07-31T13:45:52;15.70;99.90
9437;DHT22;4757;59.334;18.034;2023-07-31T13:48:19;15.70;99.90
9437;DHT22;4757;59.334;18.034;2023-07-31T13:50:47;15.80;99.90
9437;DHT22;4757;59.334;18.034;2023-07-31T13:53:14;15.80;99.90
9437;DHT22;4757;59.334;18.034;2023-07-31T13:55:41;15.80;99.90
9437;DHT22;4757;59.334;18.034;2023-07-31T13:58:12;15.80;99.90
9437;DHT22;4757;59.334;18.034;2023-07-31T14:00:39;15.90;99.90
9437;DHT22;4757;59.334;18.034;2023-07-31T14:03:06;15.90;99.90
9437;DHT22;4757;59.334;18.034;2023-07-31T14:05:33;15.90;99.90
9437;DHT22;4757;59.334;18.034;2023-07-31T14:08:01;15.90;99.90
9437;DHT22;4757;59.334;18.034;2023-07-31T14:10:28;15.80;99.90
9437;DHT22;4757;59.334;18.034;2023-07-31T14:12:55;16.70;99.90
9437;DHT22;4757;59.334;18.034;2023-07-31T14:15:22;15.60;99.90
9437;DHT22;4757;59.334;18.034;2023-07-31T14:17:49;15.40;99.90
9437;DHT22;4757;59.334;18.034;2023-07-31T14:20:17;15.40;99.90
9437;DHT22;4757;59.334;18.034;2023-07-31T14:22:45;15.50;99.90
9437;DHT22;4757;59.334;18.034;2023-07-31T14:25:12;15.60;99.90
9437;DHT22;4757;59.334;18.034;2023-07-31T14:27:40;15.60;99.90
9437;DHT22;4757;59.334;18.034;2023-07-31T14:30:07;15.60;99.90
9437;DHT22;4757;59.334;18.034;2023-07-31T14:32:35;15.60;99.90
9437;DHT22;4757;59.334;18.034;2023-07-31T14:35:04;15.60;99.90
9437;DHT22;4757;59.334;18.034;2023-07-31T14:37:42;15.70;99.90
9437;DHT22;4757;59.334;18.034;2023-07-31T14:40:11;15.70;99.90
9437;DHT22;4757;59.334;18.034;2023-07-31T14:42:39;15.70;99.90
9437;DHT22;4757;59.334;18.034;2023-07-31T14:45:07;15.80;99.90
9437;DHT22;4757;59.334;18.034;2023-07-31T14:47:34;15.80;99.90
9437;DHT22;4757;59.334;18.034;2023-07-31T14:50:03;15.70;99.90
9437;DHT22;4757;59.334;18.034;2023-07-31T14:52:30;15.70;99.90
9437;DHT22;4757;59.334;18.034;2023-07-31T14:54:58;15.70;99.90
9437;DHT22;4757;59.334;18.034;2023-07-31T14:57:25;15.70;99.90
9437;DHT22;4757;59.334;18.034;2023-07-31T14:59:53;15.70;99.90
9437;DHT22;4757;59.334;18.034;2023-07-31T15:02:20;15.60;99.90
9437;DHT22;4757;59.334;18.034;2023-07-31T15:04:48;15.70;99.90
9437;DHT22;4757;59.334;18.034;2023-07-31T15:07:15;15.70;99.90
9437;DHT22;4757;59.334;18.034;2023-07-31T15:09:42;15.70;99.90
9437;DHT22;4757;59.334;18.034;2023-07-31T15:12:09;15.70;99.90
9437;DHT22;4757;59.334;18.034;2023-07-31T15:14:36;15.60;99.90
9437;DHT22;4757;59.334;18.034;2023-07-31T15:17:04;15.70;99.90
9437;DHT22;4757;59.334;18.034;2023-07-31T15:19:31;15.70;99.90
9437;DHT22;4757;59.334;18.034;2023-07-31T15:22:02;15.70;99.90
9437;DHT22;4757;59.334;18.034;2023-07-31T15:24:30;15.70;99.90
9437;DHT22;4757;59.334;18.034;2023-07-31T15:26:57;15.80;99.90
9437;DHT22;4757;59.334;18.034;2023-07-31T15:29:24;15.60;99.90
9437;DHT22;4757;59.334;18.034;2023-07-31T15:31:51;15.80;99.90
9437;DHT22;4757;59.334;18.034;2023-07-31T15:34:18;15.90;99.90
9437;DHT22;4757;59.334;18.034;2023-07-31T15:36:46;15.90;99.90
9437;DHT22;4757;59.334;18.034;2023-07-31T15:39:13;15.90;99.90
9437;DHT22;4757;59.334;18.034;2023-07-31T15:41:41;16.00;99.90
9437;DHT22;4757;59.334;18.034;2023-07-31T15:44:09;16.00;99.90
9437;DHT22;4757;59.334;18.034;2023-07-31T15:46:36;16.00;99.90
9437;DHT22;4757;59.334;18.034;2023-07-31T15:49:03;16.10;99.90
9437;DHT22;4757;59.334;18.034;2023-07-31T15:51:30;16.00;99.90
9437;DHT22;4757;59.334;18.034;2023-07-31T15:54:00;16.00;99.90
9437;DHT22;4757;59.334;18.034;2023-07-31T15:56:27;16.10;99.90
9437;DHT22;4757;59.334;18.034;2023-07-31T15:58:54;16.10;99.90
9437;DHT22;4757;59.334;18.034;2023-07-31T16:01:24;16.10;99.90
9437;DHT22;4757;59.334;18.034;2023-07-31T16:03:52;16.10;99.90
9437;DHT22;4757;59.334;18.034;2023-07-31T16:06:19;16.10;99.90